createdAt,value
2017-08-20T00:02:15.181Z,94693.53
2017-08-20T00:04:42.900Z,94696.70
2017-08-20T00:07:10.804Z,94704.97
2017-08-20T00:09:38.928Z,94693.41
2017-08-20T00:12:06.706Z,94691.88
2017-08-20T00:14:34.539Z,94687.37
2017-08-20T00:17:02.300Z,94689.59
2017-08-20T00:19:30.100Z,94681.34
2017-08-20T00:21:57.806Z,94676.85
2017-08-20T00:24:25.528Z,94676.97
2017-08-20T00:26:55.760Z,94678.27
2017-08-20T00:29:23.541Z,94672.13
2017-08-20T00:31:51.339Z,94663.14
2017-08-20T00:34:19.053Z,94658.25
2017-08-20T00:36:46.810Z,94656.10
2017-08-20T00:39:15.460Z,94642.28
2017-08-20T00:41:43.315Z,94632.66
2017-08-20T00:44:11.024Z,94618.12
2017-08-20T00:46:38.797Z,94601.45
2017-08-20T00:49:06.575Z,94593.66
2017-08-20T00:51:34.409Z,94591.04
2017-08-20T00:54:02.178Z,94595.77
2017-08-20T00:56:29.960Z,94604.81
2017-08-20T00:58:57.885Z,94599.28
2017-08-20T01:01:25.653Z,94597.05
2017-08-20T01:03:53.359Z,94596.04
2017-08-20T01:06:21.086Z,94601.28
2017-08-20T01:08:48.798Z,94592.52
2017-08-20T01:11:16.573Z,94589.57
2017-08-20T01:13:44.278Z,94588.59
2017-08-20T01:16:11.936Z,94583.02
2017-08-20T01:18:39.696Z,94594.10
2017-08-20T01:21:07.407Z,94595.46
2017-08-20T01:23:35.125Z,94588.94
2017-08-20T01:26:02.831Z,94590.75
2017-08-20T01:28:30.613Z,94583.02
2017-08-20T01:30:58.327Z,94591.48
2017-08-20T01:33:26.016Z,94601.20
2017-08-20T01:35:53.739Z,94598.42
2017-08-20T01:38:21.417Z,94602.00
2017-08-20T01:40:49.153Z,94605.32
2017-08-20T01:43:16.876Z,94599.13
2017-08-20T01:45:44.606Z,94601.30
2017-08-20T01:48:12.287Z,94605.74
2017-08-20T01:50:40.013Z,94612.93
2017-08-20T01:53:07.774Z,94619.87
2017-08-20T01:55:35.478Z,94613.48
2017-08-20T01:58:03.222Z,94611.64
2017-08-20T02:00:45.895Z,94607.20
2017-08-20T02:03:13.656Z,94606.33
2017-08-20T02:05:41.334Z,94599.27
2017-08-20T02:08:09.060Z,94592.45
2017-08-20T02:10:36.783Z,94585.52
2017-08-20T02:13:04.686Z,94596.64
2017-08-20T02:15:32.451Z,94587.03
2017-08-20T02:18:00.249Z,94572.59
2017-08-20T02:20:28.009Z,94576.24
2017-08-20T02:22:55.725Z,94574.48
2017-08-20T02:25:23.414Z,94565.83
2017-08-20T02:27:51.160Z,94565.03
2017-08-20T02:30:18.839Z,94569.64
2017-08-20T02:32:46.600Z,94573.30
2017-08-20T02:35:14.351Z,94571.06
2017-08-20T02:37:42.042Z,94570.72
2017-08-20T02:40:09.788Z,94577.09
2017-08-20T02:42:37.607Z,94570.22
2017-08-20T02:45:05.377Z,94562.59
2017-08-20T02:47:33.166Z,94558.91
2017-08-20T02:50:00.876Z,94561.58
2017-08-20T02:52:28.599Z,94562.12
2017-08-20T02:54:56.288Z,94575.93
2017-08-20T02:57:24.043Z,94564.97
2017-08-20T02:59:51.780Z,94579.39
2017-08-20T03:02:19.503Z,94585.59
2017-08-20T03:04:47.230Z,94583.14
2017-08-20T03:07:15.008Z,94574.97
2017-08-20T03:09:42.705Z,94579.63
2017-08-20T03:12:10.788Z,94579.82
2017-08-20T03:14:38.562Z,94579.42
2017-08-20T03:17:06.248Z,94581.52
2017-08-20T03:19:33.962Z,94576.92
2017-08-20T03:22:01.668Z,94585.05
2017-08-20T03:24:29.396Z,94586.47
2017-08-20T03:26:57.098Z,94593.82
2017-08-20T03:29:24.782Z,94600.84
2017-08-20T03:31:52.511Z,94603.54
2017-08-20T03:34:20.210Z,94612.80
2017-08-20T03:36:47.919Z,94619.44
2017-08-20T03:39:15.640Z,94618.14
2017-08-20T03:41:43.330Z,94620.66
2017-08-20T03:44:11.045Z,94625.14
2017-08-20T03:46:38.772Z,94625.71
2017-08-20T03:49:06.453Z,94624.78
2017-08-20T03:51:34.155Z,94621.22
2017-08-20T03:54:01.962Z,94621.52
2017-08-20T03:56:29.740Z,94615.25
2017-08-20T03:58:57.449Z,94613.28
2017-08-20T04:01:25.332Z,94612.69
2017-08-20T04:03:53.260Z,94613.16
2017-08-20T04:06:21.252Z,94613.73
2017-08-20T04:08:48.979Z,94614.25
2017-08-20T04:11:16.692Z,94617.06
2017-08-20T04:13:44.386Z,94610.70
2017-08-20T04:16:12.114Z,94617.12
2017-08-20T04:18:39.839Z,94621.00
2017-08-20T04:21:07.596Z,94619.16
2017-08-20T04:23:35.304Z,94630.25
2017-08-20T04:26:03.025Z,94625.58
2017-08-20T04:28:30.807Z,94638.57
2017-08-20T04:30:58.583Z,94637.44
2017-08-20T04:33:26.281Z,94642.56
2017-08-20T04:35:53.974Z,94642.72
2017-08-20T04:38:21.773Z,94646.75
2017-08-20T04:40:49.508Z,94646.30
2017-08-20T04:43:17.416Z,94641.34
2017-08-20T04:45:45.125Z,94644.31
2017-08-20T04:48:12.828Z,94647.45
2017-08-20T04:50:40.596Z,94648.65
2017-08-20T04:53:08.308Z,94644.84
2017-08-20T04:55:36.101Z,94641.09
2017-08-20T04:58:03.819Z,94649.49
2017-08-20T05:00:31.584Z,94648.36
2017-08-20T05:02:59.265Z,94650.06
2017-08-20T05:05:26.967Z,94649.54
2017-08-20T05:07:54.710Z,94650.05
2017-08-20T05:10:22.399Z,94651.47
2017-08-20T05:12:50.121Z,94654.88
2017-08-20T05:15:17.806Z,94657.39
2017-08-20T05:17:45.554Z,94658.22
2017-08-20T05:20:13.289Z,94661.23
2017-08-20T05:22:40.964Z,94659.33
2017-08-20T05:25:08.710Z,94657.46
2017-08-20T05:27:36.404Z,94664.34
2017-08-20T05:30:04.239Z,94665.08
2017-08-20T05:32:32.096Z,94659.37
2017-08-20T05:34:59.839Z,94664.95
2017-08-20T05:37:27.628Z,94668.98
2017-08-20T05:39:55.330Z,94668.47
2017-08-20T05:42:23.066Z,94674.09
2017-08-20T05:44:51.974Z,94682.45
2017-08-20T05:47:19.674Z,94678.20
2017-08-20T05:49:47.440Z,94677.12
2017-08-20T05:52:15.159Z,94678.37
2017-08-20T05:54:42.944Z,94681.16
2017-08-20T05:57:10.653Z,94686.14
2017-08-20T05:59:38.425Z,94689.59
2017-08-20T06:02:06.218Z,94687.89
2017-08-20T06:04:33.958Z,94689.90
2017-08-20T06:07:01.734Z,94689.23
2017-08-20T06:09:29.531Z,94693.19
2017-08-20T06:11:57.325Z,94688.48
2017-08-20T06:14:25.114Z,94684.39
2017-08-20T06:16:52.921Z,94686.28
2017-08-20T06:19:20.945Z,94688.00
2017-08-20T06:21:48.832Z,94695.67
2017-08-20T06:24:17.936Z,94691.98
2017-08-20T06:26:45.707Z,94688.58
2017-08-20T06:29:13.427Z,94693.09
2017-08-20T06:31:41.210Z,94694.28
2017-08-20T06:34:09.046Z,94695.47
2017-08-20T06:36:36.825Z,94699.56
2017-08-20T06:39:04.637Z,94702.46
2017-08-20T06:41:32.325Z,94707.79
2017-08-20T06:44:00.102Z,94704.33
2017-08-20T06:46:27.845Z,94709.37
2017-08-20T06:48:55.590Z,94716.59
2017-08-20T06:51:23.375Z,94710.67
2017-08-20T06:53:51.074Z,94713.97
2017-08-20T06:56:18.773Z,94718.03
2017-08-20T06:58:46.544Z,94719.09
2017-08-20T07:01:14.296Z,94719.27
2017-08-20T07:03:42.020Z,94720.66
2017-08-20T07:06:09.739Z,94725.34
2017-08-20T07:08:37.500Z,94725.59
2017-08-20T07:11:05.227Z,94722.00
2017-08-20T07:13:33.136Z,94727.27
2017-08-20T07:16:00.907Z,94731.25
2017-08-20T07:18:28.700Z,94733.86
2017-08-20T07:20:56.410Z,94740.83
2017-08-20T07:23:24.198Z,94742.92
2017-08-20T07:25:52.026Z,94743.77
2017-08-20T07:28:19.805Z,94739.03
2017-08-20T07:30:47.612Z,94743.63
2017-08-20T07:33:15.440Z,94745.47
2017-08-20T07:35:43.249Z,94745.34
2017-08-20T07:38:11.070Z,94744.79
2017-08-20T07:40:39.644Z,94747.73
2017-08-20T07:43:07.848Z,94737.67
2017-08-20T07:45:35.598Z,94749.58
2017-08-20T07:48:03.326Z,94746.94
2017-08-20T07:50:31.225Z,94754.36
2017-08-20T07:52:59.877Z,94753.34
2017-08-20T07:55:27.763Z,94753.84
2017-08-20T07:57:55.981Z,94760.29
2017-08-20T08:00:23.810Z,94766.34
2017-08-20T08:02:51.571Z,94768.42
2017-08-20T08:05:19.364Z,94770.05
2017-08-20T08:07:47.076Z,94777.49
2017-08-20T08:10:14.867Z,94778.31
2017-08-20T08:12:42.638Z,94779.34
2017-08-20T08:15:10.609Z,94778.03
2017-08-20T08:17:42.133Z,94780.70
2017-08-20T08:20:09.912Z,94782.11
2017-08-20T08:22:37.700Z,94780.92
2017-08-20T08:25:05.514Z,94786.11
2017-08-20T08:27:33.422Z,94788.88
2017-08-20T08:30:01.222Z,94786.20
2017-08-20T08:32:29.038Z,94776.72
2017-08-20T08:34:56.815Z,94781.73
2017-08-20T08:37:24.621Z,94780.61
2017-08-20T08:39:52.381Z,94780.00
2017-08-20T08:42:20.416Z,94785.11
2017-08-20T08:44:48.253Z,94785.51
2017-08-20T08:47:16.144Z,94786.50
2017-08-20T08:49:43.961Z,94788.32
2017-08-20T08:52:11.803Z,94790.47
2017-08-20T08:54:39.723Z,94784.00
2017-08-20T08:57:07.603Z,94792.95
2017-08-20T08:59:35.350Z,94791.25
2017-08-20T09:02:03.142Z,94791.75
2017-08-20T09:04:30.990Z,94793.30
2017-08-20T09:06:58.774Z,94798.27
2017-08-20T09:09:26.577Z,94795.45
2017-08-20T09:11:54.366Z,94801.63
2017-08-20T09:14:22.157Z,94794.45
2017-08-20T09:16:49.904Z,94801.20
2017-08-20T09:19:17.644Z,94809.41
2017-08-20T09:21:45.448Z,94808.61
2017-08-20T09:24:13.473Z,94816.58
2017-08-20T09:26:41.252Z,94816.70
2017-08-20T09:29:09.013Z,94815.76
2017-08-20T09:31:36.774Z,94811.78
2017-08-20T09:34:04.562Z,94813.33
2017-08-20T09:36:33.885Z,94809.79
2017-08-20T09:39:01.594Z,94809.86
2017-08-20T09:41:29.585Z,94809.73
2017-08-20T09:43:57.301Z,94813.95
2017-08-20T09:46:25.131Z,94813.80
2017-08-20T09:48:52.851Z,94807.23
2017-08-20T09:51:20.634Z,94805.56
2017-08-20T09:53:48.407Z,94801.83
2017-08-20T09:56:16.191Z,94804.05
2017-08-20T09:58:43.965Z,94789.03
2017-08-20T10:01:11.798Z,94797.01
2017-08-20T10:03:39.640Z,94793.81
2017-08-20T10:06:08.405Z,94793.02
2017-08-20T10:08:36.523Z,94789.72
2017-08-20T10:11:04.367Z,94796.48
2017-08-20T10:13:32.165Z,94795.60
2017-08-20T10:16:00.008Z,94796.30
2017-08-20T10:18:27.881Z,94797.91
2017-08-20T10:20:56.594Z,94793.27
2017-08-20T10:23:24.415Z,94796.06
2017-08-20T10:25:53.220Z,94797.20
2017-08-20T10:28:20.988Z,94794.67
2017-08-20T10:30:48.749Z,94794.78
2017-08-20T10:33:16.625Z,94796.31
2017-08-20T10:35:44.447Z,94799.38
2017-08-20T10:38:12.253Z,94804.52
2017-08-20T10:40:40.054Z,94804.38
2017-08-20T10:43:07.852Z,94805.36
2017-08-20T10:45:35.637Z,94796.63
2017-08-20T10:48:03.409Z,94796.52
2017-08-20T10:50:31.120Z,94799.34
2017-08-20T10:52:58.971Z,94799.27
2017-08-20T10:55:26.707Z,94795.53
2017-08-20T10:57:54.508Z,94800.54
2017-08-20T11:00:22.405Z,94805.48
2017-08-20T11:02:50.183Z,94801.17
2017-08-20T11:05:17.917Z,94800.62
2017-08-20T11:07:45.683Z,94802.02
2017-08-20T11:10:13.457Z,94803.50
2017-08-20T11:12:41.179Z,94806.09
2017-08-20T11:15:08.950Z,94800.02
2017-08-20T11:17:36.757Z,94794.80
2017-08-20T11:20:04.581Z,94792.33
2017-08-20T11:22:32.303Z,94789.84
2017-08-20T11:25:00.124Z,94793.89
2017-08-20T11:27:27.926Z,94792.67
2017-08-20T11:29:55.742Z,94787.87
2017-08-20T11:32:24.021Z,94788.89
2017-08-20T11:34:51.753Z,94795.13
2017-08-20T11:37:19.571Z,94799.54
2017-08-20T11:39:47.357Z,94790.00
2017-08-20T11:42:15.205Z,94786.19
2017-08-20T11:44:43.807Z,94786.45
2017-08-20T11:47:11.575Z,94795.47
2017-08-20T11:49:39.399Z,94789.05
2017-08-20T11:52:07.226Z,94779.96
2017-08-20T11:54:35.066Z,94777.52
2017-08-20T11:57:03.069Z,94776.12
2017-08-20T11:59:30.894Z,94774.71
2017-08-20T12:01:58.720Z,94775.06
2017-08-20T12:04:26.462Z,94774.44
2017-08-20T12:06:54.328Z,94779.05
2017-08-20T12:09:22.119Z,94779.48
2017-08-20T12:11:49.867Z,94774.95
2017-08-20T12:14:17.700Z,94777.49
2017-08-20T12:16:45.441Z,94771.52
2017-08-20T12:19:13.645Z,94778.84
2017-08-20T12:21:41.378Z,94777.16
2017-08-20T12:24:09.172Z,94775.33
2017-08-20T12:26:36.923Z,94767.17
2017-08-20T12:29:04.689Z,94763.64
2017-08-20T12:31:32.426Z,94759.38
2017-08-20T12:34:00.192Z,94757.09
2017-08-20T12:36:27.927Z,94756.78
2017-08-20T12:38:55.759Z,94754.02
2017-08-20T12:41:23.576Z,94753.66
2017-08-20T12:43:51.296Z,94757.33
2017-08-20T12:46:19.008Z,94754.84
2017-08-20T12:48:46.796Z,94751.02
2017-08-20T12:51:14.556Z,94741.14
2017-08-20T12:53:42.357Z,94741.91
2017-08-20T12:56:10.109Z,94735.45
2017-08-20T12:58:37.801Z,94733.59
2017-08-20T13:01:05.567Z,94736.47
2017-08-20T13:03:33.300Z,94733.12
2017-08-20T13:06:01.014Z,94727.91
2017-08-20T13:08:29.763Z,94724.61
2017-08-20T13:10:57.530Z,94714.70
2017-08-20T13:13:25.263Z,94720.74
2017-08-20T13:15:53.007Z,94723.72
2017-08-20T13:18:20.869Z,94728.69
2017-08-20T13:20:48.659Z,94723.12
2017-08-20T13:23:16.432Z,94721.06
2017-08-20T13:25:44.268Z,94721.20
2017-08-20T13:28:11.974Z,94723.19
2017-08-20T13:30:39.769Z,94718.55
2017-08-20T13:33:07.462Z,94707.09
2017-08-20T13:35:35.255Z,94709.86
2017-08-20T13:38:02.963Z,94712.14
2017-08-20T13:40:30.743Z,94718.45
2017-08-20T13:42:58.532Z,94731.21
2017-08-20T13:45:26.265Z,94717.92
2017-08-20T13:47:54.037Z,94722.09
2017-08-20T13:50:21.800Z,94716.91
2017-08-20T13:52:49.634Z,94724.78
2017-08-20T13:55:17.405Z,94727.50
2017-08-20T13:57:46.141Z,94729.13
2017-08-20T14:00:13.919Z,94736.81
2017-08-20T14:02:41.700Z,94735.88
2017-08-20T14:05:09.535Z,94736.82
2017-08-20T14:07:37.261Z,94749.39
2017-08-20T14:10:05.100Z,94756.56
2017-08-20T14:12:32.887Z,94763.73
2017-08-20T14:15:00.663Z,94758.52
2017-08-20T14:17:28.435Z,94756.87
2017-08-20T14:19:56.544Z,94751.52
2017-08-20T14:22:24.720Z,94758.61
2017-08-20T14:24:52.442Z,94757.56
2017-08-20T14:27:20.143Z,94753.30
2017-08-20T14:29:47.966Z,94771.84
2017-08-20T14:32:15.712Z,94782.59
2017-08-20T14:34:43.515Z,94775.56
2017-08-20T14:37:11.343Z,94779.81
2017-08-20T14:39:39.059Z,94775.14
2017-08-20T14:42:06.857Z,94782.22
2017-08-20T14:44:34.668Z,94783.02
2017-08-20T14:47:02.517Z,94783.17
2017-08-20T14:49:30.269Z,94789.90
2017-08-20T14:51:58.037Z,94792.14
2017-08-20T14:54:25.764Z,94787.72
2017-08-20T14:56:53.514Z,94791.62
2017-08-20T14:59:21.335Z,94798.95
2017-08-20T15:01:49.108Z,94799.43
2017-08-20T15:04:16.903Z,94796.67
2017-08-20T15:06:44.716Z,94801.25
2017-08-20T15:09:12.448Z,94799.59
2017-08-20T15:11:40.238Z,94801.58
2017-08-20T15:14:08.057Z,94808.75
2017-08-20T15:16:35.865Z,94803.30
2017-08-20T15:19:03.711Z,94805.05
2017-08-20T15:21:31.467Z,94805.80
2017-08-20T15:23:59.266Z,94806.99
2017-08-20T15:26:27.055Z,94806.12
2017-08-20T15:28:54.886Z,94812.35
2017-08-20T15:31:22.708Z,94803.67
2017-08-20T15:33:50.461Z,94812.70
2017-08-20T15:36:18.305Z,94809.78
2017-08-20T15:38:46.098Z,94808.70
2017-08-20T15:41:13.880Z,94813.17
2017-08-20T15:43:41.617Z,94811.34
2017-08-20T15:46:09.399Z,94805.66
2017-08-20T15:48:37.156Z,94808.86
2017-08-20T15:51:04.948Z,94809.20
2017-08-20T15:53:32.701Z,94809.64
2017-08-20T15:56:00.468Z,94805.19
2017-08-20T15:58:28.232Z,94810.60
2017-08-20T16:00:55.975Z,94805.27
2017-08-20T16:03:23.723Z,94806.86
2017-08-20T16:05:51.443Z,94806.95
2017-08-20T16:08:19.233Z,94809.41
2017-08-20T16:10:47.085Z,94802.60
2017-08-20T16:13:14.864Z,94805.39
2017-08-20T16:15:42.621Z,94805.44
2017-08-20T16:18:10.429Z,94810.16
2017-08-20T16:20:38.229Z,94806.88
2017-08-20T16:23:06.812Z,94803.22
2017-08-20T16:25:34.649Z,94803.82
2017-08-20T16:28:02.431Z,94808.67
2017-08-20T16:30:30.258Z,94801.20
2017-08-20T16:32:58.025Z,94796.46
2017-08-20T16:35:25.852Z,94801.30
2017-08-20T16:37:53.682Z,94801.41
2017-08-20T16:40:21.767Z,94809.00
2017-08-20T16:42:50.092Z,94812.21
2017-08-20T16:45:18.493Z,94819.27
2017-08-20T16:47:47.503Z,94819.69
2017-08-20T16:50:15.304Z,94825.55
2017-08-20T16:52:43.067Z,94818.90
2017-08-20T16:55:10.803Z,94821.04
2017-08-20T16:57:38.725Z,94822.14
2017-08-20T17:00:06.431Z,94821.41
2017-08-20T17:02:34.151Z,94826.44
2017-08-20T17:05:03.050Z,94825.25
2017-08-20T17:07:30.845Z,94827.03
2017-08-20T17:09:58.671Z,94825.17
2017-08-20T17:12:26.451Z,94826.19
2017-08-20T17:14:54.267Z,94830.27
2017-08-20T17:17:22.026Z,94838.64
2017-08-20T17:19:50.587Z,94831.09
2017-08-20T17:22:18.412Z,94822.17
2017-08-20T17:24:46.175Z,94838.50
2017-08-20T17:27:14.025Z,94837.08
2017-08-20T17:29:41.807Z,94836.69
2017-08-20T17:32:09.590Z,94842.30
2017-08-20T17:34:37.432Z,94849.27
2017-08-20T17:37:06.190Z,94842.95
2017-08-20T17:39:33.987Z,94843.17
2017-08-20T17:42:01.815Z,94853.08
2017-08-20T17:44:29.621Z,94842.48
2017-08-20T17:46:57.465Z,94843.77
2017-08-20T17:49:26.280Z,94842.45
2017-08-20T17:51:54.237Z,94848.77
2017-08-20T17:54:22.040Z,94842.22
2017-08-20T17:56:49.867Z,94843.09
2017-08-20T17:59:17.924Z,94843.06
2017-08-20T18:01:47.040Z,94841.37
2017-08-20T18:04:14.863Z,94844.03
2017-08-20T18:06:43.336Z,94852.23
2017-08-20T18:09:11.892Z,94854.56
2017-08-20T18:11:39.815Z,94856.83
2017-08-20T18:14:08.410Z,94855.00
2017-08-20T18:16:36.202Z,94852.83
2017-08-20T18:19:04.157Z,94854.91
2017-08-20T18:21:31.978Z,94856.91
2017-08-20T18:24:00.411Z,94857.91
2017-08-20T18:26:28.192Z,94864.52
2017-08-20T18:28:56.009Z,94867.46
2017-08-20T18:31:23.770Z,94865.83
2017-08-20T18:33:51.639Z,94862.06
2017-08-20T18:36:19.955Z,94866.89
2017-08-20T18:38:48.318Z,94871.21
2017-08-20T18:41:16.156Z,94874.91
2017-08-20T18:43:44.012Z,94873.88
2017-08-20T18:46:12.012Z,94873.45
2017-08-20T18:48:41.047Z,94876.24
2017-08-20T18:51:09.603Z,94876.17
2017-08-20T18:53:39.110Z,94877.11
2017-08-20T18:56:11.517Z,94886.37
2017-08-20T18:58:41.852Z,94887.41
2017-08-20T19:01:10.248Z,94889.58
2017-08-20T19:03:39.340Z,94894.95
2017-08-20T19:06:10.099Z,94890.95
2017-08-20T19:08:41.140Z,94898.91
2017-08-20T19:11:09.290Z,94901.33
2017-08-20T19:13:38.514Z,94902.66
2017-08-20T19:16:07.603Z,94902.85
2017-08-20T19:18:37.995Z,94895.07
2017-08-20T19:21:05.921Z,94893.03
2017-08-20T19:23:35.226Z,94899.23
2017-08-20T19:26:04.689Z,94893.21
2017-08-20T19:28:33.268Z,94894.30
2017-08-20T19:31:01.392Z,94895.18
2017-08-20T19:33:30.119Z,94894.06
2017-08-20T19:35:58.550Z,94897.34
2017-08-20T19:38:26.402Z,94905.46
2017-08-20T19:40:56.467Z,94908.47
2017-08-20T19:43:24.768Z,94906.26
2017-08-20T19:45:52.669Z,94915.42
2017-08-20T19:48:21.264Z,94911.34
2017-08-20T19:50:50.246Z,94923.55
2017-08-20T19:53:18.027Z,94923.73
2017-08-20T19:55:45.790Z,94918.03
2017-08-20T19:58:14.440Z,94920.83
2017-08-20T20:00:42.193Z,94922.27
2017-08-20T20:03:10.029Z,94918.03
2017-08-20T20:05:37.855Z,94918.60
2017-08-20T20:08:06.180Z,94923.81
2017-08-20T20:10:34.139Z,94926.61
2017-08-20T20:13:02.973Z,94927.50
2017-08-20T20:15:30.851Z,94933.11
2017-08-20T20:17:58.576Z,94927.28
2017-08-20T20:20:26.463Z,94927.63
2017-08-20T20:22:54.273Z,94925.59
2017-08-20T20:25:22.581Z,94930.18
2017-08-20T20:27:50.356Z,94929.90
2017-08-20T20:30:18.140Z,94931.19
2017-08-20T20:32:46.041Z,94929.39
2017-08-20T20:35:14.185Z,94938.13
2017-08-20T20:37:42.058Z,94935.14
2017-08-20T20:40:10.567Z,94933.10
2017-08-20T20:42:38.433Z,94937.08
2017-08-20T20:45:06.191Z,94933.74
2017-08-20T20:47:33.926Z,94930.23
2017-08-20T20:50:01.699Z,94927.92
2017-08-20T20:52:29.453Z,94925.14
2017-08-20T20:54:57.190Z,94925.85
2017-08-20T20:57:24.988Z,94926.95
2017-08-20T20:59:52.715Z,94928.92
2017-08-20T21:02:20.437Z,94925.77
2017-08-20T21:04:48.212Z,94922.27
2017-08-20T21:07:15.956Z,94927.25
2017-08-20T21:09:43.748Z,94929.57
2017-08-20T21:12:12.727Z,94937.20
2017-08-20T21:14:40.457Z,94937.08
2017-08-20T21:17:09.268Z,94935.74
2017-08-20T21:19:37.039Z,94928.65
2017-08-20T21:22:04.810Z,94927.05
2017-08-20T21:24:32.588Z,94926.15
2017-08-20T21:27:00.395Z,94931.88
2017-08-20T21:29:28.110Z,94933.59
2017-08-20T21:31:55.842Z,94940.11
2017-08-20T21:34:23.738Z,94953.28
2017-08-20T21:36:51.462Z,94949.42
2017-08-20T21:39:19.244Z,94950.07
2017-08-20T21:41:46.948Z,94955.13
2017-08-20T21:44:15.451Z,94956.50
2017-08-20T21:46:43.212Z,94947.40
2017-08-20T21:49:10.950Z,94941.91
2017-08-20T21:51:38.675Z,94951.80
2017-08-20T21:54:06.439Z,94951.83
2017-08-20T21:56:34.172Z,94941.55
2017-08-20T21:59:01.903Z,94941.67
2017-08-20T22:01:29.712Z,94945.56
2017-08-20T22:03:57.475Z,94940.81
2017-08-20T22:06:25.181Z,94940.50
2017-08-20T22:08:53.805Z,94941.45
2017-08-20T22:11:21.480Z,94938.25
2017-08-20T22:13:49.179Z,94938.45
2017-08-20T22:16:16.920Z,94939.66
2017-08-20T22:18:44.646Z,94933.05
2017-08-20T22:21:12.417Z,94937.95
2017-08-20T22:23:40.178Z,94944.17
2017-08-20T22:26:08.083Z,94939.61
2017-08-20T22:28:35.872Z,94941.21
2017-08-20T22:31:03.633Z,94940.67
2017-08-20T22:33:31.355Z,94939.63
2017-08-20T22:35:59.136Z,94937.21
2017-08-20T22:38:26.861Z,94942.62
2017-08-20T22:40:54.618Z,94948.63
2017-08-20T22:43:22.296Z,94945.11
2017-08-20T22:45:49.994Z,94934.56
2017-08-20T22:48:17.759Z,94933.36
2017-08-20T22:50:45.527Z,94939.43
2017-08-20T22:53:13.268Z,94945.98
2017-08-20T22:55:41.003Z,94945.98
2017-08-20T22:58:08.810Z,94948.08
2017-08-20T23:00:36.521Z,94937.17
2017-08-20T23:03:04.366Z,94934.12
2017-08-20T23:05:32.078Z,94935.11
2017-08-20T23:07:59.878Z,94941.13
2017-08-20T23:10:27.639Z,94936.02
2017-08-20T23:12:55.441Z,94929.31
2017-08-20T23:15:23.179Z,94935.52
2017-08-20T23:17:50.882Z,94933.92
2017-08-20T23:20:18.776Z,94947.13
2017-08-20T23:22:46.479Z,94941.77
2017-08-20T23:25:14.170Z,94938.36
2017-08-20T23:27:41.935Z,94930.16
2017-08-20T23:30:09.696Z,94934.42
2017-08-20T23:32:37.413Z,94939.92
2017-08-20T23:35:05.147Z,94947.63
2017-08-20T23:37:32.893Z,94944.42
2017-08-20T23:40:00.580Z,94943.39
2017-08-20T23:42:28.315Z,94946.09
2017-08-20T23:44:56.034Z,94942.58
2017-08-20T23:47:23.804Z,94932.96
2017-08-20T23:49:51.521Z,94940.92
2017-08-20T23:52:19.294Z,94942.52
2017-08-20T23:54:47.004Z,94935.61
2017-08-20T23:57:14.771Z,94937.22
2017-08-20T23:59:43.115Z,94935.42
